Time;durP1;ratioP1;P1;durP2;ratioP2;P2;SDS_P1;SDS_P2;PMS_P1;PMS_P2;Temp;Humidity;BMP_temperature;BMP_pressure;BME280_temperature;BME280_humidity;BME280_pressure;Samples;Min_cycle;Max_cycle;Signal;HPM_P1;HPM_P2
2023/10/25 00:01:29;;;;;;;12.38;5.85;;;9.30;99.90;;;;;;5053560;28;20417;-82
2023/10/25 00:03:55;;;;;;;11.13;5.75;;;9.30;99.90;;;;;;5053808;28;20580;-82
2023/10/25 00:06:20;;;;;;;11.93;5.88;;;9.30;99.90;;;;;;5038447;28;20128;-82
2023/10/25 00:08:46;;;;;;;10.90;5.95;;;9.30;99.90;;;;;;5053568;28;20047;-81
2023/10/25 00:11:11;;;;;;;12.40;6.13;;;9.30;99.90;;;;;;5054140;28;20155;-82
2023/10/25 00:13:37;;;;;;;9.35;6.13;;;9.30;99.90;;;;;;5054030;28;20029;-82
2023/10/25 00:16:03;;;;;;;9.88;5.57;;;9.30;99.90;;;;;;5053674;28;20049;-82
2023/10/25 00:18:29;;;;;;;10.68;5.68;;;9.30;99.90;;;;;;5053032;28;20607;-80
2023/10/25 00:20:55;;;;;;;11.07;5.55;;;9.30;99.90;;;;;;5054244;28;20041;-81
2023/10/25 00:23:21;;;;;;;10.82;5.43;;;9.30;99.90;;;;;;5054507;28;20064;-82
2023/10/25 00:25:48;;;;;;;9.10;5.40;;;9.30;99.90;;;;;;5054150;28;20072;-81
2023/10/25 00:28:14;;;;;;;10.43;5.70;;;9.30;99.90;;;;;;5053346;28;20036;-81
2023/10/25 00:30:40;;;;;;;11.50;5.95;;;9.20;99.90;;;;;;5053547;28;20497;-82
2023/10/25 00:33:05;;;;;;;10.73;5.68;;;9.20;99.90;;;;;;5052268;28;20045;-83
2023/10/25 00:35:31;;;;;;;12.80;5.75;;;9.20;99.90;;;;;;5036962;28;20068;-82
2023/10/25 00:37:57;;;;;;;11.40;6.13;;;9.20;99.90;;;;;;5054988;28;20071;-81
2023/10/25 00:40:23;;;;;;;9.73;5.47;;;9.10;99.90;;;;;;5052723;28;20577;-82
2023/10/25 00:42:49;;;;;;;10.05;5.50;;;9.10;99.90;;;;;;5036660;28;20036;-83
2023/10/25 00:45:14;;;;;;;13.68;5.80;;;9.10;99.90;;;;;;5053487;28;20088;-82
2023/10/25 00:47:41;;;;;;;10.00;5.88;;;9.10;99.90;;;;;;5052498;28;20044;-82
2023/10/25 00:50:09;;;;;;;10.82;5.75;;;9.00;99.90;;;;;;5051712;28;20037;-82
2023/10/25 00:52:35;;;;;;;13.23;6.00;;;9.00;99.90;;;;;;5054330;28;20043;-81
2023/10/25 00:55:02;;;;;;;10.18;5.95;;;9.00;99.90;;;;;;5054764;28;20037;-82
2023/10/25 00:57:27;;;;;;;10.13;5.68;;;8.90;99.90;;;;;;5038552;28;20036;-82
2023/10/25 00:59:53;;;;;;;8.55;5.18;;;8.90;99.90;;;;;;5037905;28;20064;-81
2023/10/25 01:02:19;;;;;;;10.60;5.55;;;8.90;99.90;;;;;;5069253;28;20125;-82
2023/10/25 01:04:45;;;;;;;10.70;5.85;;;8.90;99.90;;;;;;5067762;28;20040;-81
2023/10/25 01:07:10;;;;;;;11.00;5.68;;;8.90;99.90;;;;;;5054612;28;20040;-81
2023/10/25 01:09:36;;;;;;;8.05;5.40;;;8.80;99.90;;;;;;5053551;28;20033;-80
2023/10/25 01:12:02;;;;;;;9.43;5.82;;;8.80;99.90;;;;;;5053939;28;20036;-81
2023/10/25 01:14:30;;;;;;;12.23;5.90;;;8.70;99.90;;;;;;5055294;28;20150;-82
2023/10/25 01:16:55;;;;;;;13.52;6.15;;;8.70;99.90;;;;;;5053268;28;20051;-82
2023/10/25 01:19:21;;;;;;;9.68;5.18;;;8.70;99.90;;;;;;5055948;28;20033;-81
2023/10/25 01:21:46;;;;;;;9.82;5.38;;;8.70;99.90;;;;;;5058661;28;20048;-80
2023/10/25 01:24:12;;;;;;;7.90;5.03;;;8.70;99.90;;;;;;5059030;28;20044;-81
2023/10/25 01:26:37;;;;;;;9.43;5.38;;;8.70;99.90;;;;;;5057786;28;20045;-81
2023/10/25 01:29:04;;;;;;;7.80;5.40;;;8.60;99.90;;;;;;5057295;28;20047;-80
2023/10/25 01:31:29;;;;;;;10.55;5.88;;;8.60;99.90;;;;;;5055145;28;20037;-81
2023/10/25 01:33:55;;;;;;;10.73;5.25;;;8.60;99.90;;;;;;5055956;28;20109;-80
2023/10/25 01:36:20;;;;;;;9.93;5.28;;;8.60;99.90;;;;;;5058652;28;20079;-82
2023/10/25 01:38:46;;;;;;;11.63;5.43;;;8.60;99.90;;;;;;5056012;28;20502;-80
2023/10/25 01:41:16;;;;;;;8.00;5.28;;;8.60;99.90;;;;;;5058848;28;20448;-82
2023/10/25 01:43:42;;;;;;;11.27;5.57;;;8.50;99.90;;;;;;5040589;28;20048;-82
2023/10/25 01:46:08;;;;;;;10.52;5.65;;;8.60;99.90;;;;;;5058036;28;20063;-81
2023/10/25 01:48:33;;;;;;;8.50;5.35;;;8.50;99.90;;;;;;5039661;28;20045;-81
2023/10/25 01:50:59;;;;;;;9.02;5.00;;;8.50;99.90;;;;;;5056494;28;20075;-82
2023/10/25 01:53:24;;;;;;;10.80;5.38;;;8.50;99.90;;;;;;5056686;28;20041;-81
2023/10/25 01:55:50;;;;;;;8.80;5.32;;;8.40;99.90;;;;;;5055993;28;20073;-81
2023/10/25 01:58:16;;;;;;;9.52;5.53;;;8.50;99.90;;;;;;5057021;28;20033;-82
2023/10/25 02:00:41;;;;;;;10.10;5.63;;;8.40;99.90;;;;;;5056573;28;20413;-81
2023/10/25 02:03:07;;;;;;;11.38;5.53;;;8.40;99.90;;;;;;5058376;28;20037;-81
2023/10/25 02:05:33;;;;;;;9.57;5.28;;;8.40;99.90;;;;;;5058759;28;20098;-80
2023/10/25 02:07:58;;;;;;;9.02;5.10;;;8.40;99.90;;;;;;5056668;28;20138;-81
2023/10/25 02:10:24;;;;;;;8.88;5.03;;;8.40;99.90;;;;;;5055389;28;20045;-82
2023/10/25 02:12:49;;;;;;;10.93;5.32;;;8.30;99.90;;;;;;5054732;28;20048;-81
2023/10/25 02:15:15;;;;;;;10.50;5.03;;;8.30;99.90;;;;;;5055742;28;20048;-82
2023/10/25 02:17:40;;;;;;;12.68;5.28;;;8.30;99.90;;;;;;5056959;28;20051;-81
2023/10/25 02:20:07;;;;;;;10.07;5.53;;;8.30;99.90;;;;;;5055848;28;20184;-80
2023/10/25 02:22:32;;;;;;;12.98;5.53;;;8.20;99.90;;;;;;5054572;28;20083;-80
2023/10/25 02:24:58;;;;;;;11.15;6.32;;;8.20;99.90;;;;;;5056104;28;20684;-81
2023/10/25 02:27:23;;;;;;;12.52;6.03;;;8.20;99.90;;;;;;5054116;28;20593;-82
2023/10/25 02:29:49;;;;;;;12.82;6.80;;;8.10;99.90;;;;;;5054195;28;20041;-81
2023/10/25 02:32:14;;;;;;;9.48;6.38;;;8.20;99.90;;;;;;5056153;28;20049;-80
2023/10/25 02:34:40;;;;;;;13.15;6.88;;;8.20;99.90;;;;;;5054962;28;20528;-81
2023/10/25 02:37:06;;;;;;;12.23;6.70;;;8.20;99.90;;;;;;5054502;28;20137;-81
2023/10/25 02:39:31;;;;;;;11.35;6.70;;;8.20;99.90;;;;;;5055707;28;20037;-80
2023/10/25 02:41:57;;;;;;;12.85;6.60;;;8.20;99.90;;;;;;5055012;28;20044;-81
2023/10/25 02:44:22;;;;;;;8.50;5.93;;;8.10;99.90;;;;;;5055200;28;20033;-81
2023/10/25 02:46:48;;;;;;;13.35;6.93;;;8.10;99.90;;;;;;5056695;28;20095;-80
2023/10/25 02:49:14;;;;;;;10.25;6.75;;;8.10;99.90;;;;;;5053995;28;20044;-80
2023/10/25 02:51:39;;;;;;;11.90;6.80;;;8.10;99.90;;;;;;5054773;28;20646;-81
2023/10/25 02:54:05;;;;;;;11.77;6.65;;;8.10;99.90;;;;;;5055041;28;20415;-81
2023/10/25 02:56:30;;;;;;;11.55;6.78;;;8.10;99.90;;;;;;5054958;28;20041;-81
2023/10/25 02:58:56;;;;;;;13.02;6.78;;;8.00;99.90;;;;;;5053556;28;20041;-80
2023/10/25 03:01:23;;;;;;;15.13;7.55;;;8.00;99.90;;;;;;5055538;28;20044;-81
2023/10/25 03:03:48;;;;;;;13.10;7.20;;;8.00;99.90;;;;;;5038259;28;20048;-81
2023/10/25 03:06:14;;;;;;;16.88;7.30;;;8.00;99.90;;;;;;5053748;28;20400;-81
2023/10/25 03:08:40;;;;;;;11.65;6.97;;;8.00;99.90;;;;;;5053875;28;20036;-81
2023/10/25 03:11:05;;;;;;;12.02;7.88;;;8.00;99.90;;;;;;5054057;28;20081;-81
2023/10/25 03:13:31;;;;;;;17.08;9.10;;;8.00;99.90;;;;;;5056157;28;20136;-81
2023/10/25 03:15:57;;;;;;;13.40;8.00;;;8.00;99.90;;;;;;5038134;28;20029;-81
2023/10/25 03:18:23;;;;;;;15.43;8.40;;;8.00;99.90;;;;;;5054488;28;20079;-81
2023/10/25 03:20:48;;;;;;;17.15;9.13;;;7.90;99.90;;;;;;5058792;28;20492;-81
2023/10/25 03:23:14;;;;;;;19.40;9.15;;;7.90;99.90;;;;;;5075942;28;20496;-81
2023/10/25 03:25:40;;;;;;;13.10;8.45;;;7.90;99.90;;;;;;5074305;28;20040;-81
2023/10/25 03:28:05;;;;;;;14.52;9.15;;;7.90;99.90;;;;;;5054895;28;20033;-81
2023/10/25 03:30:31;;;;;;;17.50;9.65;;;7.90;99.90;;;;;;5036416;28;20038;-81
2023/10/25 03:32:56;;;;;;;15.57;8.98;;;7.90;99.90;;;;;;5054241;28;20037;-81
2023/10/25 03:35:22;;;;;;;14.75;9.40;;;7.90;99.90;;;;;;5053740;28;20041;-81
2023/10/25 03:37:47;;;;;;;17.52;9.68;;;7.90;99.90;;;;;;5053765;28;20500;-81
2023/10/25 03:40:13;;;;;;;15.20;9.07;;;7.90;99.90;;;;;;5052393;28;20041;-81
2023/10/25 03:42:39;;;;;;;14.38;9.43;;;7.90;99.90;;;;;;5053450;28;20037;-81
2023/10/25 03:45:06;;;;;;;15.35;10.10;;;7.90;99.90;;;;;;5053612;28;20033;-81
2023/10/25 03:47:34;;;;;;;15.50;9.75;;;7.90;99.90;;;;;;5053750;28;20390;-80
2023/10/25 03:50:01;;;;;;;17.30;10.20;;;7.90;99.90;;;;;;5052726;28;20516;-80
2023/10/25 03:52:27;;;;;;;17.38;10.38;;;8.00;99.90;;;;;;5053390;28;20083;-81
2023/10/25 03:54:53;;;;;;;18.08;10.85;;;7.90;99.90;;;;;;5037187;28;20052;-81
2023/10/25 03:57:19;;;;;;;18.50;10.50;;;7.90;99.90;;;;;;5053178;28;20040;-80
2023/10/25 03:59:44;;;;;;;14.65;10.00;;;7.90;99.90;;;;;;5052794;28;20071;-81
2023/10/25 04:02:10;;;;;;;17.58;10.90;;;7.90;99.90;;;;;;5054216;28;20397;-81
2023/10/25 04:04:35;;;;;;;18.08;10.63;;;7.90;99.90;;;;;;5052248;28;20041;-81
2023/10/25 04:07:01;;;;;;;18.13;10.63;;;7.80;99.90;;;;;;5053416;28;20407;-81
2023/10/25 04:09:26;;;;;;;15.98;9.52;;;7.90;99.90;;;;;;5053157;28;20072;-79
2023/10/25 04:11:52;;;;;;;18.45;10.07;;;7.80;99.90;;;;;;5052642;28;20569;-81
2023/10/25 04:14:17;;;;;;;16.05;10.52;;;7.80;99.90;;;;;;5053011;28;20477;-80
2023/10/25 04:16:43;;;;;;;16.38;10.10;;;7.80;99.90;;;;;;5036222;28;20053;-81
2023/10/25 04:19:08;;;;;;;13.60;9.23;;;7.80;99.90;;;;;;5052423;28;20033;-80
2023/10/25 04:21:34;;;;;;;17.95;9.82;;;7.80;99.90;;;;;;5052814;28;20068;-80
2023/10/25 04:24:01;;;;;;;21.20;10.27;;;7.80;99.90;;;;;;5050754;28;20079;-80
2023/10/25 04:26:28;;;;;;;17.38;10.00;;;7.80;99.90;;;;;;5052842;28;20041;-80
2023/10/25 04:28:54;;;;;;;21.00;9.90;;;7.70;99.90;;;;;;5036972;28;20038;-80
2023/10/25 04:31:20;;;;;;;15.88;9.70;;;7.70;99.90;;;;;;5052971;28;20048;-80
2023/10/25 04:33:47;;;;;;;16.27;9.88;;;7.70;99.90;;;;;;5054125;28;20037;-80
2023/10/25 04:36:13;;;;;;;18.95;10.07;;;7.70;99.90;;;;;;5053589;28;20045;-80
2023/10/25 04:38:38;;;;;;;14.55;9.15;;;7.70;99.90;;;;;;5036496;28;20039;-80
2023/10/25 04:41:04;;;;;;;15.40;9.18;;;7.70;99.90;;;;;;5036210;28;20094;-80
2023/10/25 04:43:30;;;;;;;17.00;9.63;;;7.70;99.90;;;;;;5052624;28;20095;-79
2023/10/25 04:45:55;;;;;;;15.07;8.70;;;7.70;99.90;;;;;;5053553;28;20067;-80
2023/10/25 04:48:21;;;;;;;17.35;8.93;;;7.60;99.90;;;;;;5053737;28;20039;-79
2023/10/25 04:50:46;;;;;;;13.15;9.30;;;7.60;99.90;;;;;;5053451;28;20044;-79
2023/10/25 04:53:12;;;;;;;14.27;9.23;;;7.60;99.90;;;;;;5054152;28;20087;-79
2023/10/25 04:55:38;;;;;;;14.52;8.70;;;7.60;99.90;;;;;;5052422;28;20033;-80
2023/10/25 04:58:06;;;;;;;13.50;8.48;;;7.60;99.90;;;;;;5051546;28;20040;-80
2023/10/25 05:00:32;;;;;;;13.27;8.43;;;7.50;99.90;;;;;;5051245;28;20048;-79
2023/10/25 05:02:58;;;;;;;16.83;9.43;;;7.50;99.90;;;;;;5051833;28;20194;-80
2023/10/25 05:05:24;;;;;;;13.50;9.10;;;7.50;99.90;;;;;;5051917;28;20091;-79
2023/10/25 05:07:51;;;;;;;15.13;8.80;;;7.50;99.90;;;;;;5052991;28;20071;-80
2023/10/25 05:10:17;;;;;;;16.50;8.65;;;7.40;99.90;;;;;;5034516;28;20037;-80
2023/10/25 05:12:45;;;;;;;13.18;8.85;;;7.40;99.90;;;;;;5051534;28;20558;-80
2023/10/25 05:15:16;;;;;;;15.73;8.05;;;7.40;99.90;;;;;;5050996;28;20036;-80
2023/10/25 05:17:44;;;;;;;12.23;8.50;;;7.40;99.90;;;;;;5035478;28;20065;-79
2023/10/25 05:20:10;;;;;;;17.83;8.60;;;7.40;99.90;;;;;;5036013;28;20041;-80
2023/10/25 05:22:41;;;;;;;12.05;7.93;;;7.40;99.90;;;;;;5051771;28;20101;-79
2023/10/25 05:25:10;;;;;;;18.13;8.35;;;7.30;99.90;;;;;;5035826;28;20048;-80
2023/10/25 05:27:37;;;;;;;17.08;8.93;;;7.30;99.90;;;;;;5055571;28;20029;-80
2023/10/25 05:30:04;;;;;;;13.93;8.00;;;7.30;99.90;;;;;;5053456;28;20033;-80
2023/10/25 05:32:35;;;;;;;12.63;8.50;;;7.30;99.90;;;;;;5054235;28;20492;-80
2023/10/25 05:35:02;;;;;;;12.68;8.38;;;7.30;99.90;;;;;;5056133;28;20075;-79
2023/10/25 05:37:30;;;;;;;13.48;7.82;;;7.30;99.90;;;;;;5037605;28;20045;-80
2023/10/25 05:39:56;;;;;;;16.77;8.65;;;7.20;99.90;;;;;;5036923;28;20040;-80
2023/10/25 05:42:25;;;;;;;13.88;7.70;;;7.20;99.90;;;;;;5036715;28;20051;-80
2023/10/25 05:44:53;;;;;;;11.98;7.97;;;7.20;99.90;;;;;;5037250;28;20033;-80
2023/10/25 05:47:20;;;;;;;13.00;7.93;;;7.30;99.90;;;;;;5054341;28;20048;-79
2023/10/25 05:49:46;;;;;;;11.85;8.07;;;7.20;99.90;;;;;;5067337;28;20112;-80
2023/10/25 05:52:12;;;;;;;13.00;7.72;;;7.30;99.90;;;;;;5054447;28;20503;-80
2023/10/25 05:54:38;;;;;;;15.07;8.10;;;7.20;99.90;;;;;;5053339;28;20040;-80
2023/10/25 05:57:04;;;;;;;14.20;7.82;;;7.20;99.90;;;;;;5054022;28;20045;-80
2023/10/25 05:59:30;;;;;;;14.02;8.00;;;7.20;99.90;;;;;;5051894;28;20094;-80
2023/10/25 06:02:07;;;;;;;12.98;7.57;;;7.20;99.90;;;;;;5052080;28;20048;-80
2023/10/25 06:04:35;;;;;;;13.82;7.95;;;7.10;99.90;;;;;;5038063;28;20436;-79
2023/10/25 06:07:01;;;;;;;10.40;7.53;;;7.10;99.90;;;;;;5055031;28;20086;-80
2023/10/25 06:09:27;;;;;;;11.77;7.60;;;7.10;99.90;;;;;;5056657;28;20132;-80
2023/10/25 06:11:53;;;;;;;12.40;7.43;;;7.10;99.90;;;;;;5056595;28;20048;-80
2023/10/25 06:14:19;;;;;;;13.23;7.75;;;7.10;99.90;;;;;;5057230;28;20037;-79
2023/10/25 06:16:44;;;;;;;9.75;6.90;;;7.10;99.90;;;;;;5055170;28;20503;-80
2023/10/25 06:19:10;;;;;;;13.05;7.55;;;7.10;99.90;;;;;;5057310;28;20091;-80
2023/10/25 06:21:35;;;;;;;14.23;7.68;;;7.10;99.90;;;;;;5054839;28;20564;-80
2023/10/25 06:24:01;;;;;;;14.07;7.78;;;7.00;99.90;;;;;;5039704;28;20045;-80
2023/10/25 06:26:27;;;;;;;11.52;7.55;;;7.00;99.90;;;;;;5057293;28;20037;-80
2023/10/25 06:28:52;;;;;;;11.32;7.78;;;7.00;99.90;;;;;;5056904;28;20504;-80
2023/10/25 06:31:18;;;;;;;13.40;7.82;;;7.00;99.90;;;;;;5057185;28;20131;-80
2023/10/25 06:33:43;;;;;;;12.35;7.43;;;7.10;99.90;;;;;;5056624;28;20040;-80
2023/10/25 06:36:10;;;;;;;11.63;7.82;;;7.10;99.90;;;;;;5055730;28;20044;-80
2023/10/25 06:38:36;;;;;;;11.65;8.05;;;7.10;99.90;;;;;;5055031;28;20097;-80
2023/10/25 06:41:02;;;;;;;12.52;7.45;;;7.20;99.90;;;;;;5056503;28;20041;-80
2023/10/25 06:43:30;;;;;;;12.40;7.32;;;7.10;99.90;;;;;;5059622;28;20041;-80
2023/10/25 06:45:55;;;;;;;15.43;7.80;;;7.20;99.90;;;;;;5040485;28;20393;-81
2023/10/25 06:48:21;;;;;;;9.93;7.30;;;7.20;99.90;;;;;;5056668;28;20045;-80
2023/10/25 06:50:47;;;;;;;16.00;7.53;;;7.10;99.90;;;;;;5056907;28;20488;-80
2023/10/25 06:53:13;;;;;;;10.00;6.93;;;7.20;99.90;;;;;;5057574;28;20099;-81
2023/10/25 06:55:39;;;;;;;16.58;7.60;;;7.20;99.90;;;;;;5056207;28;20075;-81
2023/10/25 06:58:05;;;;;;;12.85;7.45;;;7.20;99.90;;;;;;5056513;28;20049;-80
2023/10/25 07:00:31;;;;;;;15.30;8.18;;;7.20;99.90;;;;;;5057909;28;20041;-80
2023/10/25 07:03:02;;;;;;;12.43;7.18;;;7.20;99.90;;;;;;5040117;28;20508;-80
2023/10/25 07:05:29;;;;;;;14.13;7.70;;;7.30;99.90;;;;;;5056251;28;20505;-79
2023/10/25 07:07:55;;;;;;;14.85;7.05;;;7.30;99.90;;;;;;5057151;28;20523;-81
2023/10/25 07:10:22;;;;;;;12.75;7.57;;;7.00;99.90;;;;;;5054406;28;20041;-80
2023/10/25 07:12:48;;;;;;;16.25;8.70;;;7.30;99.90;;;;;;5055219;28;20492;-81
2023/10/25 07:15:14;;;;;;;10.23;7.03;;;7.40;99.90;;;;;;5066336;28;20036;-80
2023/10/25 07:17:41;;;;;;;11.13;7.78;;;7.40;99.90;;;;;;5067608;28;20025;-80
2023/10/25 07:20:10;;;;;;;12.05;7.32;;;7.40;99.90;;;;;;5053879;28;20037;-81
2023/10/25 07:22:36;;;;;;;11.80;7.32;;;7.40;99.90;;;;;;5053680;28;20040;-81
2023/10/25 07:25:02;;;;;;;13.10;8.05;;;7.40;99.90;;;;;;5037940;28;20037;-80
2023/10/25 07:27:28;;;;;;;19.70;7.45;;;7.40;99.90;;;;;;5054167;28;20370;-80
2023/10/25 07:29:53;;;;;;;14.30;7.40;;;7.40;99.90;;;;;;5055039;28;20037;-81
2023/10/25 07:32:19;;;;;;;12.38;7.45;;;7.40;99.90;;;;;;5055295;28;20065;-81
2023/10/25 07:34:45;;;;;;;13.20;7.03;;;7.40;99.90;;;;;;5054594;28;20033;-80
2023/10/25 07:37:10;;;;;;;11.40;7.28;;;7.40;99.90;;;;;;5038485;28;20048;-78
2023/10/25 07:39:36;;;;;;;13.10;8.00;;;7.50;99.90;;;;;;5053832;28;20458;-80
2023/10/25 07:42:02;;;;;;;15.07;7.65;;;7.40;99.90;;;;;;5054087;28;20424;-80
2023/10/25 07:44:28;;;;;;;11.50;7.57;;;7.40;99.90;;;;;;5054480;28;20127;-80
2023/10/25 07:46:53;;;;;;;15.35;7.90;;;7.50;99.90;;;;;;5055141;28;20051;-80
2023/10/25 07:49:19;;;;;;;15.85;7.65;;;7.50;99.90;;;;;;5052914;28;20123;-79
2023/10/25 07:51:44;;;;;;;21.40;8.77;;;7.50;99.90;;;;;;5037780;28;20037;-79
2023/10/25 07:54:10;;;;;;;11.85;7.28;;;7.50;99.90;;;;;;5054894;28;20048;-80
2023/10/25 07:56:36;;;;;;;15.25;7.47;;;7.50;99.90;;;;;;5037869;28;20053;-80
2023/10/25 07:59:01;;;;;;;15.73;7.45;;;7.60;99.90;;;;;;5053509;28;20079;-80
2023/10/25 08:01:27;;;;;;;19.65;9.30;;;7.60;99.90;;;;;;5053818;28;20047;-79
2023/10/25 08:03:53;;;;;;;15.48;8.98;;;7.70;99.90;;;;;;5053296;28;20503;-80
2023/10/25 08:06:18;;;;;;;14.05;8.65;;;7.60;99.90;;;;;;5071650;28;20119;-78
2023/10/25 08:08:44;;;;;;;13.32;9.10;;;7.70;99.90;;;;;;5071740;28;20518;-79
2023/10/25 08:11:10;;;;;;;14.55;9.23;;;7.70;99.90;;;;;;5053795;28;20080;-79
2023/10/25 08:13:38;;;;;;;13.15;8.23;;;7.80;99.90;;;;;;5054130;28;20045;-79
2023/10/25 08:16:04;;;;;;;12.68;8.63;;;7.80;99.90;;;;;;5054089;28;20098;-80
2023/10/25 08:18:31;;;;;;;12.50;7.93;;;7.80;99.90;;;;;;5053884;28;20515;-80
2023/10/25 08:20:58;;;;;;;12.55;8.43;;;7.90;99.90;;;;;;5053810;28;20086;-80
2023/10/25 08:23:24;;;;;;;13.98;7.97;;;8.00;99.90;;;;;;5053232;28;20045;-79
2023/10/25 08:25:51;;;;;;;12.40;8.35;;;8.00;99.90;;;;;;5055963;28;20124;-81
2023/10/25 08:28:17;;;;;;;12.80;8.27;;;8.10;99.90;;;;;;5053379;28;20045;-80
2023/10/25 08:30:43;;;;;;;12.10;8.55;;;8.10;99.90;;;;;;5053709;28;20044;-79
2023/10/25 08:33:08;;;;;;;13.98;8.40;;;8.20;99.90;;;;;;5037378;28;20075;-79
2023/10/25 08:35:34;;;;;;;12.05;8.00;;;8.30;99.90;;;;;;5054385;28;20041;-79
2023/10/25 08:37:59;;;;;;;12.68;7.78;;;8.40;99.90;;;;;;5054895;28;20044;-80
2023/10/25 08:40:25;;;;;;;10.23;7.85;;;8.40;99.90;;;;;;5053409;28;20040;-79
2023/10/25 08:42:51;;;;;;;13.02;8.40;;;8.50;99.90;;;;;;5038328;28;20068;-79
2023/10/25 08:45:17;;;;;;;12.68;7.93;;;8.50;99.90;;;;;;5054056;28;20097;-79
2023/10/25 08:47:43;;;;;;;16.13;8.52;;;8.60;99.90;;;;;;5056120;28;20086;-79
2023/10/25 08:50:10;;;;;;;11.13;8.07;;;8.60;99.90;;;;;;5055006;28;20083;-81
2023/10/25 08:52:41;;;;;;;14.43;8.27;;;8.70;99.90;;;;;;5039314;28;20029;-80
2023/10/25 08:55:09;;;;;;;10.52;8.02;;;8.70;99.90;;;;;;5054324;28;20090;-81
2023/10/25 08:57:36;;;;;;;13.43;8.20;;;8.80;99.90;;;;;;5055244;28;20068;-79
2023/10/25 09:00:07;;;;;;;12.00;8.02;;;8.90;99.90;;;;;;5052126;28;20041;-78
2023/10/25 09:02:36;;;;;;;10.73;7.60;;;8.90;99.90;;;;;;5056822;28;20045;-79
2023/10/25 09:05:02;;;;;;;13.02;8.57;;;8.90;99.90;;;;;;5038981;28;20055;-80
2023/10/25 09:07:37;;;;;;;14.30;7.70;;;8.90;99.90;;;;;;5038660;28;20037;-79
2023/10/25 09:10:15;;;;;;;11.43;7.63;;;9.00;99.90;;;;;;5038105;28;20074;-80
2023/10/25 09:12:41;;;;;;;12.20;8.00;;;9.10;99.90;;;;;;5054811;28;20037;-79
2023/10/25 09:15:07;;;;;;;12.13;7.80;;;9.10;99.90;;;;;;5054659;28;20041;-79
2023/10/25 09:17:34;;;;;;;12.52;7.78;;;9.20;99.90;;;;;;5055965;28;20095;-79
2023/10/25 09:20:00;;;;;;;11.63;7.05;;;9.20;99.90;;;;;;5055207;28;20072;-79
2023/10/25 09:22:28;;;;;;;14.65;7.00;;;9.30;99.90;;;;;;5052468;28;20079;-79
2023/10/25 09:24:55;;;;;;;12.60;7.60;;;9.30;99.90;;;;;;5052550;28;20048;-79
2023/10/25 09:27:22;;;;;;;11.18;7.30;;;9.30;99.90;;;;;;5054448;28;20450;-80
2023/10/25 09:29:51;;;;;;;13.10;7.43;;;9.40;99.90;;;;;;5039088;28;20041;-80
2023/10/25 09:32:19;;;;;;;10.93;7.05;;;9.40;99.90;;;;;;5055376;28;20416;-79
2023/10/25 09:34:48;;;;;;;13.13;7.47;;;9.50;99.90;;;;;;5054676;28;20041;-80
2023/10/25 09:37:15;;;;;;;11.13;6.82;;;9.50;99.90;;;;;;5039474;28;20033;-80
2023/10/25 09:39:41;;;;;;;13.65;7.03;;;9.60;99.90;;;;;;5040409;28;20516;-80
2023/10/25 09:42:15;;;;;;;13.15;6.68;;;9.60;99.90;;;;;;5041336;28;20072;-79
2023/10/25 09:44:45;;;;;;;;;;;9.70;99.90;;;;;;5059980;28;20055;-79
2023/10/25 09:47:11;;;;;;;11.95;6.75;;;9.70;99.90;;;;;;5059759;28;19923;-79
2023/10/25 09:49:42;;;;;;;14.73;7.32;;;9.80;99.90;;;;;;5056039;28;20504;-79
2023/10/25 09:52:24;;;;;;;10.68;6.55;;;9.80;99.90;;;;;;5059632;28;20457;-80
2023/10/25 09:54:51;;;;;;;10.55;6.82;;;9.90;99.90;;;;;;5061276;28;20087;-79
2023/10/25 09:57:18;;;;;;;14.60;7.40;;;9.90;99.90;;;;;;5057338;28;20059;-79
2023/10/25 09:59:45;;;;;;;13.85;6.85;;;10.00;99.90;;;;;;5057522;28;20118;-79
2023/10/25 10:02:19;;;;;;;8.07;6.30;;;10.00;99.90;;;;;;5057923;28;20403;-79
2023/10/25 10:04:55;;;;;;;9.77;6.65;;;10.10;99.90;;;;;;5043013;28;20491;-79
2023/10/25 10:07:37;;;;;;;13.88;6.93;;;10.20;99.90;;;;;;5061034;28;20041;-79
2023/10/25 10:10:39;;;;;;;10.07;6.50;;;10.30;99.90;;;;;;5058150;28;20036;-79
2023/10/25 10:13:20;;;;;;;10.60;6.55;;;10.40;99.90;;;;;;5044045;28;20083;-79
2023/10/25 10:16:05;;;;;;;10.40;6.45;;;10.50;99.90;;;;;;5057012;28;20041;-79
2023/10/25 10:18:32;;;;;;;10.65;6.75;;;10.70;99.90;;;;;;5058429;28;20074;-78
2023/10/25 10:21:14;;;;;;;8.80;5.95;;;10.80;99.90;;;;;;5060870;28;20040;-80
2023/10/25 10:23:49;;;;;;;11.70;6.30;;;10.90;99.90;;;;;;5041984;28;20053;-80
2023/10/25 10:26:44;;;;;;;13.43;6.60;;;11.00;99.90;;;;;;5042357;28;20053;-79
2023/10/25 10:29:31;;;;;;;9.80;6.07;;;11.20;99.90;;;;;;5066808;28;20555;-80
2023/10/25 10:32:02;;;;;;;10.15;6.30;;;11.30;99.90;;;;;;5059469;28;20037;-80
2023/10/25 10:34:41;;;;;;;9.38;5.63;;;11.30;99.90;;;;;;5077105;28;20120;-81
2023/10/25 10:37:16;;;;;;;9.95;5.35;;;11.30;99.90;;;;;;5073261;28;20072;-78
2023/10/25 10:39:56;;;;;;;8.55;5.65;;;11.30;99.90;;;;;;5039146;28;20439;-79
2023/10/25 10:42:28;;;;;;;10.25;6.18;;;11.40;99.90;;;;;;5057858;28;20120;-78
2023/10/25 10:44:57;;;;;;;10.13;5.95;;;11.40;99.90;;;;;;5069149;28;20172;-78
2023/10/25 10:47:32;;;;;;;14.75;6.97;;;11.40;99.90;;;;;;5058075;28;20040;-79
2023/10/25 10:50:10;;;;;;;12.38;5.88;;;11.40;99.90;;;;;;5055249;28;20044;-80
2023/10/25 10:52:36;;;;;;;12.60;5.88;;;11.40;99.90;;;;;;5055774;28;20044;-79
2023/10/25 10:55:01;;;;;;;11.55;5.90;;;11.50;99.90;;;;;;5042386;28;20132;-79
2023/10/25 10:57:27;;;;;;;8.60;5.63;;;11.50;99.90;;;;;;5058075;28;20048;-79
2023/10/25 10:59:55;;;;;;;10.55;5.85;;;11.60;99.90;;;;;;5059007;28;20037;-80
2023/10/25 11:02:20;;;;;;;7.60;5.35;;;11.70;99.90;;;;;;5058507;28;20063;-79
2023/10/25 11:04:47;;;;;;;11.30;5.53;;;11.70;99.90;;;;;;5056912;28;20390;-80
2023/10/25 11:07:12;;;;;;;11.23;5.70;;;11.80;99.90;;;;;;5062004;28;20081;-79
2023/10/25 11:09:38;;;;;;;12.23;5.30;;;11.90;99.90;;;;;;5055927;28;20040;-79
2023/10/25 11:12:06;;;;;;;8.93;5.15;;;11.90;99.90;;;;;;5055940;28;20508;-79
2023/10/25 11:14:42;;;;;;;9.32;4.97;;;12.00;99.90;;;;;;5055394;28;20033;-79
2023/10/25 11:17:08;;;;;;;7.53;4.80;;;12.10;99.90;;;;;;5055644;28;20041;-81
2023/10/25 11:19:33;;;;;;;9.10;4.82;;;12.20;99.90;;;;;;5056256;28;20473;-79
2023/10/25 11:21:59;;;;;;;7.60;4.47;;;12.30;99.90;;;;;;5057587;28;20037;-80
2023/10/25 11:24:25;;;;;;;6.75;4.40;;;12.30;99.90;;;;;;5056944;28;20115;-80
2023/10/25 11:26:53;;;;;;;8.70;4.63;;;12.30;99.90;;;;;;5055054;28;20080;-79
2023/10/25 11:29:19;;;;;;;8.20;4.20;;;12.30;99.90;;;;;;5054679;28;20408;-79
2023/10/25 11:31:45;;;;;;;8.00;4.28;;;12.30;99.90;;;;;;5054436;28;20041;-80
2023/10/25 11:34:10;;;;;;;9.82;4.88;;;12.30;99.90;;;;;;5036299;28;20126;-79
2023/10/25 11:36:36;;;;;;;8.45;5.13;;;12.30;99.90;;;;;;5054436;28;20047;-79
2023/10/25 11:39:06;;;;;;;10.68;5.15;;;12.30;99.90;;;;;;5037670;28;20099;-79
2023/10/25 11:41:32;;;;;;;6.95;4.35;;;12.30;99.90;;;;;;5054499;28;20423;-80
2023/10/25 11:44:00;;;;;;;8.68;4.72;;;12.30;99.90;;;;;;5054590;28;20369;-79
2023/10/25 11:46:34;;;;;;;8.18;4.10;;;12.30;99.90;;;;;;5055011;28;20037;-79
2023/10/25 11:49:01;;;;;;;11.30;4.65;;;12.30;99.90;;;;;;5053534;28;20116;-79
2023/10/25 11:51:26;;;;;;;8.18;4.45;;;12.40;99.90;;;;;;5054772;28;20041;-79
2023/10/25 11:53:52;;;;;;;8.13;4.07;;;12.40;99.90;;;;;;5039043;28;20037;-80
2023/10/25 11:56:21;;;;;;;8.30;3.75;;;12.40;99.90;;;;;;5054137;28;20094;-78
2023/10/25 11:58:47;;;;;;;7.88;4.20;;;12.40;99.90;;;;;;5053446;28;20119;-80
2023/10/25 12:01:13;;;;;;;7.85;4.50;;;12.50;99.90;;;;;;5037206;28;20077;-81
2023/10/25 12:03:39;;;;;;;8.65;4.18;;;12.40;99.90;;;;;;5056943;28;20092;-81
2023/10/25 12:06:04;;;;;;;7.22;4.40;;;12.50;99.90;;;;;;5054080;28;20091;-80
2023/10/25 12:08:30;;;;;;;9.07;4.82;;;12.40;99.90;;;;;;5069112;28;20097;-79
2023/10/25 12:10:56;;;;;;;6.75;4.15;;;12.40;99.90;;;;;;5064344;28;20526;-79
2023/10/25 12:13:21;;;;;;;10.70;5.25;;;12.40;99.90;;;;;;5052920;28;20056;-79
2023/10/25 12:15:47;;;;;;;7.43;5.03;;;12.40;99.90;;;;;;5053377;28;20055;-79
2023/10/25 12:18:12;;;;;;;10.18;4.82;;;12.30;99.90;;;;;;5051250;28;20051;-80
2023/10/25 12:20:38;;;;;;;10.25;5.10;;;12.30;99.90;;;;;;5051778;28;20073;-80
2023/10/25 12:23:03;;;;;;;7.53;4.70;;;12.30;99.90;;;;;;5052219;28;20076;-79
2023/10/25 12:25:29;;;;;;;8.30;4.68;;;12.20;99.90;;;;;;5052693;28;20122;-78
2023/10/25 12:27:54;;;;;;;9.98;4.63;;;12.10;99.90;;;;;;5036518;28;20041;-79
2023/10/25 12:30:20;;;;;;;9.18;5.28;;;12.10;99.90;;;;;;5052496;28;20043;-80
2023/10/25 12:32:45;;;;;;;8.52;5.18;;;12.00;99.90;;;;;;5052538;28;20029;-79
2023/10/25 12:35:11;;;;;;;9.07;4.80;;;12.00;99.90;;;;;;5051527;28;20497;-80
2023/10/25 12:37:36;;;;;;;7.63;4.60;;;12.00;99.90;;;;;;5052955;28;20758;-79
2023/10/25 12:40:04;;;;;;;6.25;4.80;;;12.00;99.90;;;;;;5052357;28;20083;-79
2023/10/25 12:42:30;;;;;;;7.25;4.72;;;11.90;99.90;;;;;;5053070;28;20477;-79
2023/10/25 12:44:55;;;;;;;8.05;4.50;;;11.90;99.90;;;;;;5035147;28;20036;-79